Castle Airport
KMER : rendu visible

Aérodrome :











RETROUVEZ-NOUS SUR...

 
LOGIN :

S'inscrire | Disclaimer

   EN    FR    IT 

 









Légende :    VFR   VFR Marginal   IFR   IFR Intensif   IFR Très Intensif
Visi : 
Plafond : 
>= 8 km
>= 3000ft
5 à 8 km
1000 à 3000 ft
1500m à 5 km
500 à 1000 ft
800 à 1500m
200 à 500 ft
< 800m
< 200 ft
Symboles :   Orages  Brouillard  Fortes neiges  Fortes précipitations  Vent > 20 kt






- Altitude de l'aérodrome : 191 ft


KMER - Castle

DERNIER METAR :
  • 121015Z AUTO 8SM CLR 07/07 A3007 RMK AO1

METARs EXPIRÉS :
  • 120955Z AUTO 7SM CLR 07/07 A3007 RMK AO1
  • 120935Z AUTO 7SM CLR 07/07 A3008 RMK AO1
  • 120915Z AUTO 8SM CLR 07/07 A3008 RMK AO1
  • 120855Z AUTO 9SM CLR 08/07 A3008 RMK AO1
  • 120835Z AUTO 8SM CLR 08/07 A3008 RMK AO1
  • 120815Z AUTO 7SM CLR 07/07 A3008 RMK AO1
  • 120755Z AUTO 7SM CLR 08/07 A3008 RMK AO1
  • 120735Z AUTO 7SM CLR 08/07 A3008 RMK AO1

TAF KMER
Valide du 12 à 06h jusqu'au 13 à 06h UTC


120520Z 1206/1306 VRB03KT P6SM SCT200



MET'MAP, la Météo Aéronautique d'un coup d'oeil ! - Copyright ORBIFLY Décembre 2007 - Disclaimer

ORBIFLY MET'MAP TEAM :

Programmation & Développement : Alexandra Zaïnal
Conception & Développement : Baudouin d'Aumeries
Co-Programmation & Développement : Marc-Olivier Méhu
Soutien technique & logistique : Manuel Goepfert

Contact : metmap@orbifly.com




SOURCES & CREDITS :

   NOAA       Earth
Advisory